Time;durP1;ratioP1;P1;durP2;ratioP2;P2;SDS_P1;SDS_P2;PMS_P1;PMS_P2;Temp;Humidity;BMP_temperature;BMP_pressure;BME280_temperature;BME280_humidity;BME280_pressure;Samples;Min_cycle;Max_cycle;Signal;HPM_P1;HPM_P2
2021/11/14 00:05:12;;;;;;;43.90;41.40;;;;;;;12.65;100.00;102192.00;2016886;71;32922;-73
2021/11/14 00:10:58;;;;;;;51.37;48.13;;;;;;;12.63;100.00;102190.02;2018440;71;33468;-67
2021/11/14 00:16:42;;;;;;;45.53;43.03;;;;;;;12.26;100.00;102192.77;1998608;71;33505;-66
2021/11/14 00:22:27;;;;;;;42.70;40.30;;;;;;;12.54;100.00;102183.80;2013059;71;32868;-67
2021/11/14 00:28:11;;;;;;;44.93;42.50;;;;;;;12.63;100.00;102191.95;2011553;71;32843;-78
2021/11/14 00:33:55;;;;;;;44.77;42.07;;;;;;;12.54;100.00;102178.22;2000786;71;33309;-74
2021/11/14 00:39:40;;;;;;;43.80;41.20;;;;;;;12.57;100.00;102172.98;2013040;71;32848;-66
2021/11/14 00:45:27;;;;;;;44.43;42.03;;;;;;;12.56;100.00;102168.50;2004569;71;33311;-68
2021/11/14 00:51:13;;;;;;;47.33;44.73;;;;;;;12.48;100.00;102176.52;2013328;71;32870;-74
2021/11/14 00:56:57;;;;;;;50.43;47.53;;;;;;;12.22;100.00;102176.84;2009471;71;32878;-72
2021/11/14 01:02:42;;;;;;;52.27;49.20;;;;;;;12.01;100.00;102194.45;2016602;71;32914;-73
2021/11/14 01:08:28;;;;;;;51.50;48.30;;;;;;;11.85;100.00;102203.19;2011225;71;32829;-66
2021/11/14 01:14:14;;;;;;;55.13;51.70;;;;;;;11.91;100.00;102202.67;2000831;71;32762;-68
2021/11/14 01:19:59;;;;;;;51.87;48.87;;;;;;;11.95;100.00;102214.97;2004018;71;33356;-74
2021/11/14 01:25:45;;;;;;;51.27;48.37;;;;;;;11.80;100.00;102213.72;2016764;71;32857;-72
2021/11/14 01:31:29;;;;;;;48.57;45.70;;;;;;;11.90;100.00;102214.36;2009491;71;32854;-72
2021/11/14 01:37:14;;;;;;;52.60;49.23;;;;;;;11.84;100.00;102224.62;2009596;71;33390;-73
2021/11/14 01:42:59;;;;;;;52.73;49.63;;;;;;;11.88;100.00;102230.50;2014829;71;33358;-67
2021/11/14 01:48:44;;;;;;;50.63;47.83;;;;;;;11.84;100.00;102243.27;1995333;71;32822;-66
2021/11/14 01:54:29;;;;;;;51.03;48.03;;;;;;;11.95;100.00;102245.60;2014912;71;32936;-68
2021/11/14 02:00:17;;;;;;;49.87;46.97;;;;;;;12.01;100.00;102243.19;2018572;71;32903;-74
2021/11/14 02:06:04;;;;;;;50.10;47.30;;;;;;;11.94;100.00;102245.34;2006318;71;32869;-67
2021/11/14 02:11:49;;;;;;;52.47;49.47;;;;;;;11.79;100.00;102254.33;1997150;71;32941;-74
2021/11/14 02:17:33;;;;;;;52.97;50.00;;;;;;;12.18;100.00;102256.47;2005983;71;33405;-68
2021/11/14 02:23:20;;;;;;;44.77;42.40;;;;;;;12.13;100.00;102252.23;2016829;71;32858;-68
2021/11/14 02:29:07;;;;;;;49.77;47.03;;;;;;;12.21;100.00;102258.72;2015395;71;34653;-66
2021/11/14 02:34:50;;;;;;;50.43;47.43;;;;;;;11.95;100.00;102256.20;2002396;71;33399;-68
2021/11/14 02:40:35;;;;;;;51.20;48.30;;;;;;;11.86;100.00;102260.53;2015037;71;32892;-73
2021/11/14 02:46:19;;;;;;;50.90;47.93;;;;;;;11.79;100.00;102263.53;2016646;71;32846;-72
2021/11/14 02:52:05;;;;;;;49.80;47.03;;;;;;;12.00;100.00;102265.16;2009560;71;32912;-73
2021/11/14 02:57:49;;;;;;;47.00;44.40;;;;;;;11.81;100.00;102276.63;2015069;71;32910;-66
2021/11/14 03:03:36;;;;;;;47.03;44.33;;;;;;;11.89;100.00;102268.94;2008059;71;33357;-67
2021/11/14 03:09:22;;;;;;;46.10;43.50;;;;;;;12.19;100.00;102265.94;2002110;71;32953;-68
2021/11/14 03:15:09;;;;;;;46.03;43.43;;;;;;;12.21;100.00;102267.92;2006530;71;33430;-66
2021/11/14 03:20:55;;;;;;;48.40;45.70;;;;;;;12.22;100.00;102268.22;2000149;71;33342;-73
2021/11/14 03:26:40;;;;;;;47.00;44.40;;;;;;;12.18;100.00;102269.85;2018632;71;32965;-66
2021/11/14 03:32:25;;;;;;;47.90;45.20;;;;;;;12.17;100.00;102272.34;2016693;71;33414;-74
2021/11/14 03:38:10;;;;;;;51.53;48.40;;;;;;;12.12;100.00;102275.61;1998553;71;33355;-67
2021/11/14 03:43:56;;;;;;;51.40;48.30;;;;;;;12.11;100.00;102266.41;2003976;71;32921;-74
2021/11/14 03:49:41;;;;;;;52.50;49.33;;;;;;;12.03;100.00;102282.73;2015145;71;32923;-68
2021/11/14 03:55:28;;;;;;;52.43;49.10;;;;;;;11.94;100.00;102279.56;2013170;70;32918;-73
2021/11/14 04:01:14;;;;;;;53.63;50.33;;;;;;;11.96;100.00;102288.52;2013297;71;33317;-74
2021/11/14 04:06:59;;;;;;;52.10;48.80;;;;;;;12.00;100.00;102302.22;2009370;71;32973;-73
2021/11/14 04:12:44;;;;;;;53.57;50.17;;;;;;;11.92;100.00;102301.28;2005695;71;32939;-68
2021/11/14 04:18:29;;;;;;;55.03;51.10;;;;;;;11.70;100.00;102299.84;2007834;71;32816;-69
2021/11/14 04:24:13;;;;;;;53.97;50.47;;;;;;;11.74;100.00;102309.94;1996966;71;33264;-74
2021/11/14 04:29:57;;;;;;;54.80;51.10;;;;;;;11.67;100.00;102314.83;2006167;71;32762;-72
2021/11/14 04:35:42;;;;;;;52.83;49.23;;;;;;;11.71;100.00;102327.13;1998416;71;32827;-74
2021/11/14 04:41:27;;;;;;;54.00;50.30;;;;;;;11.71;100.00;102322.41;1998469;71;30964;-69
2021/11/14 04:47:11;;;;;;;53.07;49.23;;;;;;;11.53;100.00;102326.88;1995201;71;32838;-73
2021/11/14 04:52:56;;;;;;;53.93;50.23;;;;;;;11.65;100.00;102326.75;1997036;71;32913;-74
2021/11/14 04:58:40;;;;;;;54.03;50.33;;;;;;;11.72;100.00;102321.32;2015096;71;32826;-74
2021/11/14 05:04:23;;;;;;;52.23;48.63;;;;;;;11.66;100.00;102336.25;2016819;71;33004;-68
2021/11/14 05:10:10;;;;;;;54.13;50.30;;;;;;;11.65;100.00;102340.12;2011972;71;33385;-67
2021/11/14 05:15:56;;;;;;;55.90;52.03;;;;;;;11.62;100.00;102340.64;1995165;71;32930;-73
2021/11/14 05:21:40;;;;;;;54.90;51.00;;;;;;;11.57;100.00;102350.31;2008106;71;32868;-76
2021/11/14 05:27:25;;;;;;;55.20;51.20;;;;;;;11.45;100.00;102355.68;1997281;71;33301;-77
2021/11/14 05:33:09;;;;;;;57.50;53.27;;;;;;;11.55;100.00;102353.06;2000185;71;33446;-68
2021/11/14 05:38:54;;;;;;;55.50;51.30;;;;;;;11.45;100.00;102354.29;2000440;71;32928;-73
2021/11/14 05:44:38;;;;;;;54.90;51.13;;;;;;;11.57;100.00;102357.27;2002481;71;32900;-76
2021/11/14 05:50:23;;;;;;;54.43;50.60;;;;;;;11.56;100.00;102356.97;2008292;71;33423;-74
2021/11/14 05:56:07;;;;;;;56.53;52.50;;;;;;;11.57;100.00;102354.48;1998624;71;33537;-68
2021/11/14 06:01:56;;;;;;;56.97;52.67;;;;;;;11.64;100.00;102363.48;2009509;71;32919;-68
2021/11/14 06:07:37;;;;;;;55.97;51.53;;;;;;;11.56;100.00;102370.03;2011454;71;33285;-75
2021/11/14 06:13:24;;;;;;;56.63;52.40;;;;;;;11.57;100.00;102384.25;2018477;71;32915;-67
2021/11/14 06:19:09;;;;;;;57.13;52.83;;;;;;;11.65;100.00;102389.37;2013281;71;32987;-68
2021/11/14 06:24:53;;;;;;;55.80;51.60;;;;;;;11.70;100.00;102395.03;2009460;71;32862;-74
2021/11/14 06:30:37;;;;;;;57.70;53.23;;;;;;;11.73;100.00;102403.75;1999149;71;32818;-68
2021/11/14 06:36:21;;;;;;;55.90;51.60;;;;;;;11.72;100.00;102412.38;2014828;71;32856;-73
2021/11/14 06:42:06;;;;;;;56.57;52.30;;;;;;;11.72;100.00;102412.38;2011038;71;32878;-66
2021/11/14 06:47:50;;;;;;;58.00;53.57;;;;;;;11.70;100.00;102428.44;2018456;71;32919;-73
2021/11/14 06:53:35;;;;;;;56.47;52.10;;;;;;;11.81;100.00;102425.58;1995294;71;32848;-67
2021/11/14 06:59:19;;;;;;;57.60;53.20;;;;;;;11.82;100.00;102431.45;2013337;71;32944;-73
2021/11/14 07:05:03;;;;;;;55.97;51.50;;;;;;;11.69;100.00;102430.92;2018571;71;32961;-68
2021/11/14 07:10:47;;;;;;;57.77;53.30;;;;;;;11.77;100.00;102443.89;2014954;71;33307;-68
2021/11/14 07:16:34;;;;;;;58.40;53.70;;;;;;;11.75;100.00;102453.06;2014995;71;32895;-76
2021/11/14 07:22:18;;;;;;;56.93;52.10;;;;;;;11.74;100.00;102458.88;2011452;71;32927;-73
2021/11/14 07:28:02;;;;;;;59.17;54.47;;;;;;;11.81;100.00;102465.95;2002765;71;33287;-67
2021/11/14 07:33:47;;;;;;;59.93;55.07;;;;;;;11.80;100.00;102474.03;1998883;71;32835;-67
2021/11/14 07:39:31;;;;;;;56.13;52.03;;;;;;;11.87;100.00;102480.81;2008283;71;32768;-73
2021/11/14 07:45:20;;;;;;;57.67;53.30;;;;;;;11.85;100.00;102481.05;2005674;71;32886;-69
2021/11/14 07:51:05;;;;;;;59.67;55.03;;;;;;;11.92;100.00;102480.05;2003918;71;33353;-69
2021/11/14 07:56:49;;;;;;;58.17;53.77;;;;;;;11.99;100.00;102484.34;2016659;71;33361;-73
2021/11/14 08:02:33;;;;;;;61.40;56.70;;;;;;;12.01;100.00;102479.92;2011378;71;32820;-67
2021/11/14 08:08:17;;;;;;;60.53;55.87;;;;;;;12.05;100.00;102483.33;2005585;71;32879;-73
2021/11/14 08:14:01;;;;;;;58.93;54.33;;;;;;;12.10;100.00;102488.14;2006189;71;32850;-66
2021/11/14 08:19:45;;;;;;;58.63;53.93;;;;;;;12.09;100.00;102493.41;1991569;71;32838;-74
2021/11/14 08:25:30;;;;;;;57.90;53.50;;;;;;;12.13;100.00;102496.82;2006246;71;33333;-74
2021/11/14 08:31:20;;;;;;;59.97;55.27;;;;;;;12.15;100.00;102500.75;2000145;71;32831;-69
2021/11/14 08:37:01;;;;;;;57.40;53.10;;;;;;;12.17;100.00;102507.75;2004506;71;33396;-74
2021/11/14 08:42:46;;;;;;;57.00;52.80;;;;;;;12.15;100.00;102514.69;2002551;71;33316;-68
2021/11/14 08:48:29;;;;;;;57.47;53.27;;;;;;;12.30;100.00;102518.53;2000943;70;33428;-68
2021/11/14 08:54:16;;;;;;;58.00;53.60;;;;;;;12.36;100.00;102519.46;2006199;71;32774;-75
2021/11/14 09:00:00;;;;;;;59.63;55.00;;;;;;;12.40;100.00;102522.02;1997165;71;32883;-72
2021/11/14 09:05:45;;;;;;;59.73;55.10;;;;;;;12.43;100.00;102518.72;2016920;71;32799;-74
2021/11/14 09:11:29;;;;;;;61.00;56.40;;;;;;;12.50;100.00;102520.75;2003950;71;32899;-66
2021/11/14 09:17:13;;;;;;;59.43;54.80;;;;;;;12.51;100.00;102529.42;2007419;71;32873;-67
2021/11/14 09:22:58;;;;;;;60.10;55.30;;;;;;;12.55;100.00;102531.98;2011420;71;32909;-74
2021/11/14 09:28:43;;;;;;;60.47;55.40;;;;;;;12.56;100.00;102539.80;2006268;71;32870;-68
2021/11/14 09:34:27;;;;;;;61.77;56.80;;;;;;;12.54;100.00;102551.20;2000791;71;32733;-68
2021/11/14 09:40:12;;;;;;;63.83;58.37;;;;;;;12.62;100.00;102549.35;2011354;71;32993;-74
2021/11/14 09:45:58;;;;;;;63.67;58.37;;;;;;;12.61;100.00;102556.05;1998566;71;32868;-68
2021/11/14 09:51:42;;;;;;;65.77;59.97;;;;;;;12.62;100.00;102556.91;2004001;71;32819;-73
2021/11/14 09:57:27;;;;;;;66.17;60.07;;;;;;;12.69;100.00;102550.58;2015084;71;32948;-68
2021/11/14 10:03:11;;;;;;;65.77;59.87;;;;;;;12.69;100.00;102563.13;2000737;71;33321;-68
2021/11/14 10:08:56;;;;;;;64.77;59.07;;;;;;;12.75;100.00;102553.70;1991512;71;33378;-72
2021/11/14 10:14:51;;;;;;;62.87;57.20;;;;;;;12.85;100.00;102559.98;2003895;71;33442;-72
2021/11/14 10:20:37;;;;;;;66.00;60.10;;;;;;;12.90;100.00;102564.23;1997120;71;33230;-69
2021/11/14 10:26:24;;;;;;;64.40;58.40;;;;;;;12.92;100.00;102570.41;2016937;71;32930;-68
2021/11/14 10:32:15;;;;;;;64.57;58.50;;;;;;;12.87;100.00;102578.16;1997189;71;32768;-67
2021/11/14 10:38:06;;;;;;;62.70;57.03;;;;;;;12.95;100.00;102583.83;2016623;71;32903;-68
2021/11/14 10:43:55;;;;;;;68.97;63.00;;;;;;;13.15;100.00;102588.30;1997022;71;33318;-70
2021/11/14 10:49:40;;;;;;;73.03;67.07;;;;;;;12.89;100.00;102591.28;2009480;71;32891;-69
2021/11/14 10:55:27;;;;;;;75.10;68.73;;;;;;;12.89;100.00;102589.89;2007673;71;32847;-70
2021/11/14 11:01:13;;;;;;;73.37;67.40;;;;;;;12.96;100.00;102590.56;2006336;71;32800;-71
2021/11/14 11:07:01;;;;;;;70.37;64.57;;;;;;;13.01;100.00;102593.39;2008150;71;33244;-68
2021/11/14 11:12:47;;;;;;;70.70;64.37;;;;;;;13.05;100.00;102600.72;2006232;71;33385;-68
2021/11/14 11:18:37;;;;;;;70.83;64.83;;;;;;;13.08;100.00;102601.58;2004045;71;33597;-66
2021/11/14 11:24:24;;;;;;;72.23;66.47;;;;;;;13.12;100.00;102604.18;1977749;72;33448;-67
2021/11/14 11:30:13;;;;;;;70.53;64.73;;;;;;;13.13;100.00;102601.14;2016656;71;32883;-69
2021/11/14 11:35:58;;;;;;;71.10;64.90;;;;;;;13.14;100.00;102606.14;2011379;71;32915;-67
2021/11/14 11:41:44;;;;;;;73.97;67.97;;;;;;;13.17;100.00;102595.33;1991460;71;32829;-68
2021/11/14 11:47:33;;;;;;;73.67;67.90;;;;;;;13.17;100.00;102600.06;2005630;71;32928;-73
2021/11/14 11:53:25;;;;;;;72.57;66.80;;;;;;;13.15;100.00;102598.91;2000815;71;32859;-72
2021/11/14 11:59:27;;;;;;;72.27;66.30;;;;;;;13.15;100.00;102593.88;1997055;71;32775;-66
2021/11/14 12:05:16;;;;;;;73.20;66.97;;;;;;;13.18;100.00;102591.41;1991514;71;32864;-72
2021/11/14 12:11:02;;;;;;;72.13;66.13;;;;;;;13.21;100.00;102591.46;2000171;70;33419;-70
2021/11/14 12:16:58;;;;;;;70.90;64.97;;;;;;;13.30;100.00;102592.69;2011511;71;33307;-66
2021/11/14 12:22:45;;;;;;;69.90;64.03;;;;;;;13.37;100.00;102591.92;1991398;71;33361;-69
2021/11/14 12:28:44;;;;;;;65.53;59.57;;;;;;;13.38;100.00;102589.44;2004555;71;33359;-71
2021/11/14 12:34:32;;;;;;;80.07;61.40;;;;;;;13.43;100.00;102585.86;1991717;71;33330;-68
2021/11/14 12:40:28;;;;;;;65.40;59.87;;;;;;;13.42;100.00;102586.95;2009637;71;33417;-72
2021/11/14 12:46:27;;;;;;;66.03;60.07;;;;;;;13.41;100.00;102591.69;1994947;71;33523;-67
2021/11/14 12:52:13;;;;;;;67.77;61.67;;;;;;;13.42;100.00;102589.75;2016865;71;32911;-73
2021/11/14 12:58:08;;;;;;;69.90;63.87;;;;;;;13.45;100.00;102595.64;1992081;71;32787;-70
2021/11/14 13:03:55;;;;;;;67.23;61.53;;;;;;;13.51;100.00;102596.00;2000721;71;33343;-71
2021/11/14 13:09:46;;;;;;;65.30;59.43;;;;;;;13.53;100.00;102599.91;2014900;71;32838;-70
2021/11/14 13:15:31;;;;;;;69.03;63.40;;;;;;;13.66;100.00;102612.06;2016678;71;33417;-70
2021/11/14 13:21:18;;;;;;;69.80;64.47;;;;;;;13.68;100.00;102619.09;2002468;71;32855;-67
2021/11/14 13:27:10;;;;;;;74.10;68.33;;;;;;;13.56;100.00;102610.58;2011537;71;33385;-67
2021/11/14 13:32:58;;;;;;;70.00;64.50;;;;;;;13.52;100.00;102610.81;2018610;71;33411;-72
2021/11/14 13:38:44;;;;;;;67.97;62.00;;;;;;;13.51;100.00;102610.52;2013220;71;32941;-71
2021/11/14 13:44:35;;;;;;;69.50;63.97;;;;;;;13.49;100.00;102609.92;2016736;71;33006;-71
2021/11/14 13:50:31;;;;;;;70.20;64.73;;;;;;;13.36;100.00;102605.58;2008189;71;32880;-71
2021/11/14 13:56:24;;;;;;;72.90;66.97;;;;;;;13.41;100.00;102614.58;2003974;71;33421;-71
2021/11/14 14:02:11;;;;;;;65.03;59.60;;;;;;;13.42;100.00;102612.08;2018655;71;32903;-70
2021/11/14 14:08:12;;;;;;;66.17;60.60;;;;;;;13.48;100.00;102614.66;1998956;71;33339;-71
2021/11/14 14:13:59;;;;;;;62.13;57.13;;;;;;;13.57;100.00;102622.02;2018608;71;32947;-67
2021/11/14 14:19:45;;;;;;;68.67;63.10;;;;;;;13.53;100.00;102623.09;2008132;71;32878;-72
2021/11/14 14:25:32;;;;;;;64.63;59.83;;;;;;;13.52;100.00;102626.17;2009306;71;32784;-71
2021/11/14 14:31:20;;;;;;;64.77;59.87;;;;;;;13.63;100.00;102630.75;2015011;71;32938;-71
2021/11/14 14:37:09;;;;;;;61.13;56.60;;;;;;;13.64;100.00;102631.89;2003893;71;33459;-67
2021/11/14 14:42:55;;;;;;;57.87;53.63;;;;;;;13.73;100.00;102625.28;2016805;71;32829;-67
2021/11/14 14:48:43;;;;;;;56.13;52.10;;;;;;;13.75;100.00;102623.05;1998534;71;32905;-68
2021/11/14 14:54:31;;;;;;;61.57;57.17;;;;;;;13.81;100.00;102630.39;2000401;71;32794;-66
2021/11/14 15:00:17;;;;;;;59.07;54.73;;;;;;;13.80;100.00;102628.70;2013258;71;32982;-68
2021/11/14 15:06:14;;;;;;;58.03;54.10;;;;;;;13.79;100.00;102624.21;2000334;71;32802;-71
2021/11/14 15:12:00;;;;;;;62.47;57.87;;;;;;;13.80;100.00;102627.85;2009436;71;33250;-66
2021/11/14 15:17:57;;;;;;;59.07;54.47;;;;;;;13.83;100.00;102628.16;2016719;71;33281;-71
2021/11/14 15:23:43;;;;;;;56.93;52.83;;;;;;;13.80;100.00;102639.02;2000287;71;32969;-70
2021/11/14 15:29:30;;;;;;;60.73;56.30;;;;;;;13.74;100.00;102631.69;2015165;71;33410;-68
2021/11/14 15:35:15;;;;;;;59.43;55.03;;;;;;;13.55;100.00;102630.67;2013015;71;32881;-70
2021/11/14 15:41:02;;;;;;;62.13;57.83;;;;;;;13.70;100.00;102625.79;2004059;71;32913;-66
2021/11/14 15:46:47;;;;;;;58.30;54.13;;;;;;;13.56;100.00;102627.33;2003852;71;33477;-70
2021/11/14 15:52:32;;;;;;;62.57;57.73;;;;;;;13.51;100.00;102629.51;2006046;71;32825;-71
2021/11/14 15:58:17;;;;;;;62.23;57.50;;;;;;;13.44;100.00;102628.00;2009762;71;32834;-67
2021/11/14 16:04:03;;;;;;;59.07;54.73;;;;;;;13.41;100.00;102627.13;2014827;71;32919;-71
2021/11/14 16:09:49;;;;;;;64.20;59.27;;;;;;;13.34;100.00;102626.50;2016833;71;32936;-72
2021/11/14 16:15:33;;;;;;;63.67;59.03;;;;;;;13.20;100.00;102631.62;2016815;71;33485;-67
2021/11/14 16:21:17;;;;;;;61.47;57.07;;;;;;;13.20;100.00;102645.03;1991575;71;33335;-68
2021/11/14 16:27:02;;;;;;;60.93;56.40;;;;;;;13.14;100.00;102649.39;2014960;70;32797;-75
2021/11/14 16:32:47;;;;;;;58.30;54.00;;;;;;;12.95;100.00;102661.94;2016853;71;32823;-67
2021/11/14 16:38:31;;;;;;;57.10;52.93;;;;;;;12.92;100.00;102668.86;2018364;71;32909;-71
2021/11/14 16:44:15;;;;;;;59.27;55.27;;;;;;;12.81;100.00;102679.58;2006067;71;33336;-70
2021/11/14 16:50:00;;;;;;;58.07;53.97;;;;;;;12.76;100.00;102685.08;2008140;71;32748;-69
2021/11/14 16:55:46;;;;;;;54.57;50.70;;;;;;;12.69;100.00;102691.39;2013700;71;32873;-72
2021/11/14 17:01:33;;;;;;;54.10;50.33;;;;;;;12.81;100.00;102697.71;1999011;71;32844;-66
2021/11/14 17:07:17;;;;;;;54.53;50.63;;;;;;;12.75;100.00;102705.69;2011645;71;32900;-67
2021/11/14 17:13:00;;;;;;;54.43;50.70;;;;;;;12.86;100.00;102703.38;1995070;71;32778;-72
2021/11/14 17:18:44;;;;;;;49.43;46.20;;;;;;;12.97;100.00;102712.18;2000649;71;32899;-68
2021/11/14 17:24:28;;;;;;;45.43;42.63;;;;;;;13.06;100.00;102712.59;2016555;71;32853;-73
2021/11/14 17:30:16;;;;;;;46.87;43.83;;;;;;;12.99;100.00;102704.41;2009356;71;31003;-74
2021/11/14 17:36:00;;;;;;;50.77;47.67;;;;;;;13.07;100.00;102706.77;2015004;71;33006;-67
2021/11/14 17:41:44;;;;;;;47.93;44.93;;;;;;;13.12;100.00;102707.42;2014861;71;32947;-68
2021/11/14 17:47:28;;;;;;;50.77;47.77;;;;;;;13.00;100.00;102710.30;2008115;71;32840;-67
2021/11/14 17:53:14;;;;;;;49.37;46.27;;;;;;;12.95;100.00;102709.36;2016611;71;33316;-67
2021/11/14 17:58:59;;;;;;;54.30;51.00;;;;;;;12.91;100.00;102704.00;2018452;71;33337;-67
2021/11/14 18:04:49;;;;;;;49.63;46.50;;;;;;;13.00;100.00;102709.45;1932680;74;33474;-78
2021/11/14 18:10:35;;;;;;;49.27;46.03;;;;;;;12.83;100.00;102710.87;1991326;71;32856;-72
2021/11/14 18:16:20;;;;;;;52.43;49.17;;;;;;;12.60;100.00;102713.82;2000420;70;32747;-81
2021/11/14 18:22:06;;;;;;;54.23;50.73;;;;;;;12.81;100.00;102738.70;2002061;71;32926;-71
2021/11/14 18:27:53;;;;;;;52.70;49.20;;;;;;;12.54;100.00;102750.52;2009695;70;32911;-68
2021/11/14 18:33:36;;;;;;;54.37;50.70;;;;;;;12.55;100.00;102752.22;2000706;71;32875;-68
2021/11/14 18:39:23;;;;;;;55.47;51.53;;;;;;;12.46;100.00;102758.45;2000156;71;33479;-68
2021/11/14 18:45:09;;;;;;;55.07;51.17;;;;;;;12.44;100.00;102760.66;2000674;71;32841;-68
2021/11/14 18:50:54;;;;;;;54.60;50.53;;;;;;;12.54;100.00;102766.39;2000734;71;32759;-70
2021/11/14 18:56:39;;;;;;;54.70;50.80;;;;;;;12.51;100.00;102785.87;2000630;71;33002;-75
2021/11/14 19:02:23;;;;;;;53.23;49.33;;;;;;;12.46;100.00;102787.17;1995130;71;32944;-75
2021/11/14 19:08:08;;;;;;;53.13;49.23;;;;;;;12.53;100.00;102785.09;1995493;71;33258;-78
2021/11/14 19:13:52;;;;;;;53.43;49.43;;;;;;;12.57;100.00;102798.83;1991603;71;33282;-71
2021/11/14 19:19:38;;;;;;;55.17;51.17;;;;;;;12.52;100.00;102800.66;2014594;71;32804;-75
2021/11/14 19:25:23;;;;;;;54.30;50.10;;;;;;;12.54;100.00;102809.06;2017104;71;32872;-70
2021/11/14 19:31:13;;;;;;;55.20;51.03;;;;;;;12.48;100.00;102805.90;2002375;71;32881;-75
2021/11/14 19:36:58;;;;;;;53.40;49.30;;;;;;;12.49;100.00;102810.39;2016439;71;32939;-73
2021/11/14 19:42:43;;;;;;;53.70;49.80;;;;;;;12.41;100.00;102814.13;2011554;71;32781;-72
2021/11/14 19:48:27;;;;;;;55.90;52.10;;;;;;;12.55;100.00;102819.67;2003883;71;32936;-69
2021/11/14 19:54:13;;;;;;;52.53;48.70;;;;;;;12.47;100.00;102818.14;2011343;71;32911;-72
2021/11/14 20:00:00;;;;;;;53.40;49.50;;;;;;;12.63;100.00;102822.89;2000591;70;32834;-70
2021/11/14 20:05:45;;;;;;;52.40;48.70;;;;;;;12.27;100.00;102816.36;2011531;71;32815;-73
2021/11/14 20:11:29;;;;;;;53.00;49.20;;;;;;;12.37;100.00;102825.45;2000050;71;32898;-74
2021/11/14 20:17:17;;;;;;;56.00;52.20;;;;;;;12.19;100.00;102827.91;2009302;71;33441;-74
2021/11/14 20:23:01;;;;;;;57.40;53.50;;;;;;;12.26;100.00;102836.41;2012939;71;33387;-68
2021/11/14 20:28:45;;;;;;;57.43;53.47;;;;;;;12.14;100.00;102844.52;2009330;71;32920;-67
2021/11/14 20:34:30;;;;;;;59.33;55.43;;;;;;;12.12;100.00;102848.08;1991379;71;32825;-68
2021/11/14 20:40:17;;;;;;;54.23;50.33;;;;;;;12.05;100.00;102855.74;2018472;71;32923;-73
2021/11/14 20:46:02;;;;;;;55.93;52.00;;;;;;;12.00;100.00;102859.81;1995265;71;32752;-70
2021/11/14 20:51:46;;;;;;;57.77;53.67;;;;;;;11.99;100.00;102860.34;1991684;71;32835;-71
2021/11/14 20:57:31;;;;;;;55.50;51.50;;;;;;;11.98;100.00;102855.05;2012777;71;32822;-69
2021/11/14 21:03:16;;;;;;;55.30;51.30;;;;;;;12.09;100.00;102863.36;1996915;71;32828;-68
2021/11/14 21:09:00;;;;;;;59.67;55.50;;;;;;;12.09;100.00;102858.33;2000222;71;32849;-73
2021/11/14 21:14:45;;;;;;;57.23;53.33;;;;;;;12.02;100.00;102859.03;2006231;71;33234;-74
2021/11/14 21:20:29;;;;;;;56.33;52.23;;;;;;;12.00;100.00;102865.38;2014918;71;32946;-70
2021/11/14 21:26:13;;;;;;;55.87;51.87;;;;;;;11.95;100.00;102877.25;2017096;71;32873;-74
2021/11/14 21:31:58;;;;;;;56.70;52.60;;;;;;;12.03;100.00;102875.48;2013476;71;32755;-68
2021/11/14 21:43:48;;;;;;;56.10;51.80;;;;;;;12.00;100.00;102880.70;2000312;71;33318;-72
2021/11/14 21:49:32;;;;;;;53.50;49.50;;;;;;;11.89;100.00;102880.19;2007856;71;32905;-68
2021/11/14 21:55:16;;;;;;;53.53;49.53;;;;;;;11.98;100.00;102873.16;2000751;71;33211;-67
2021/11/14 22:01:01;;;;;;;54.60;50.50;;;;;;;11.92;100.00;102878.30;2013333;71;32861;-68
2021/11/14 22:06:46;;;;;;;56.50;52.60;;;;;;;11.96;100.00;102881.73;2000791;71;32755;-67
2021/11/14 22:12:30;;;;;;;57.10;52.60;;;;;;;11.81;100.00;102887.80;2003678;71;32908;-68
2021/11/14 22:18:14;;;;;;;55.30;51.17;;;;;;;11.85;100.00;102884.02;2013042;71;33023;-68
2021/11/14 22:23:59;;;;;;;55.80;51.53;;;;;;;11.82;100.00;102883.94;1963725;71;33006;-68
2021/11/14 22:29:44;;;;;;;57.57;53.57;;;;;;;11.78;100.00;102881.88;2005990;71;32882;-68
2021/11/14 22:35:28;;;;;;;58.33;54.17;;;;;;;11.74;100.00;102884.85;2009523;71;33047;-68
2021/11/14 22:41:13;;;;;;;54.60;50.47;;;;;;;11.76;100.00;102886.32;2009359;71;32898;-70
2021/11/14 22:46:57;;;;;;;59.27;54.90;;;;;;;11.71;100.00;102895.06;2014654;71;32819;-70
2021/11/14 22:52:41;;;;;;;54.80;50.80;;;;;;;11.57;100.00;102884.71;2000094;71;32819;-74
2021/11/14 22:58:26;;;;;;;58.90;54.00;;;;;;;11.70;100.00;102887.79;2009427;71;32909;-70
2021/11/14 23:04:34;;;;;;;56.50;52.30;;;;;;;11.50;100.00;102889.56;2014799;71;33386;-71
2021/11/14 23:10:19;;;;;;;58.70;54.33;;;;;;;11.46;100.00;102888.35;2013292;71;32886;-73
2021/11/14 23:16:04;;;;;;;57.07;52.87;;;;;;;11.48;100.00;102881.98;1998485;71;32960;-74
2021/11/14 23:21:50;;;;;;;57.13;52.93;;;;;;;11.62;100.00;102883.98;2016687;71;31020;-73
2021/11/14 23:27:35;;;;;;;53.70;49.80;;;;;;;11.60;100.00;102881.97;1995046;71;33376;-72
2021/11/14 23:33:22;;;;;;;56.33;52.37;;;;;;;11.48;100.00;102883.38;2013675;71;32844;-72
2021/11/14 23:39:09;;;;;;;55.43;51.27;;;;;;;11.40;100.00;102885.13;2003786;71;33007;-74
2021/11/14 23:44:54;;;;;;;55.60;51.23;;;;;;;11.50;100.00;102875.65;2006239;71;32757;-73
2021/11/14 23:50:39;;;;;;;53.50;49.23;;;;;;;11.41;100.00;102879.88;2013160;71;30885;-71
2021/11/14 23:56:23;;;;;;;53.57;49.47;;;;;;;11.38;100.00;102888.14;2000595;71;32875;-74
